Time;durP1;ratioP1;P1;durP2;ratioP2;P2;SDS_P1;SDS_P2;PMS_P1;PMS_P2;Temp;Humidity;BMP_temperature;BMP_pressure;BME280_temperature;BME280_humidity;BME280_pressure;Samples;Min_cycle;Max_cycle;Signal;HPM_P1;HPM_P2
2023/08/16 00:01:48;;;;;;;5.30;4.80;;;26.70;92.20;;;;;;4910758;29;20483;-70
2023/08/16 00:04:14;;;;;;;5.20;4.80;;;26.70;92.20;;;;;;4926691;29;20229;-70
2023/08/16 00:06:43;;;;;;;5.33;4.83;;;26.70;92.20;;;;;;4926162;29;20444;-69
2023/08/16 00:09:09;;;;;;;4.80;4.40;;;26.70;92.20;;;;;;4926921;29;20701;-70
2023/08/16 00:11:35;;;;;;;4.53;4.20;;;26.60;92.20;;;;;;4926181;29;20513;-70
2023/08/16 00:14:01;;;;;;;4.90;4.40;;;26.60;92.20;;;;;;4895238;29;20555;-70
2023/08/16 00:16:27;;;;;;;4.10;3.80;;;26.60;92.20;;;;;;4910494;29;20196;-70
2023/08/16 00:18:59;;;;;;;5.00;4.60;;;26.60;92.20;;;;;;4927295;29;20499;-70
2023/08/16 00:21:27;;;;;;;4.70;4.30;;;26.60;92.20;;;;;;4909859;29;20503;-70
2023/08/16 00:23:53;;;;;;;4.50;4.10;;;26.60;92.30;;;;;;4910307;29;20522;-70
2023/08/16 00:26:20;;;;;;;4.73;4.33;;;26.60;92.30;;;;;;4927281;29;21309;-70
2023/08/16 00:28:48;;;;;;;5.13;4.73;;;26.60;92.20;;;;;;4910144;29;20431;-70
2023/08/16 00:31:14;;;;;;;4.77;4.37;;;26.50;92.20;;;;;;4910866;29;20495;-70
2023/08/16 00:33:41;;;;;;;5.10;4.60;;;26.50;92.20;;;;;;4891442;29;21324;-70
2023/08/16 00:36:07;;;;;;;4.50;4.10;;;26.50;92.60;;;;;;4966597;23;20854;-68
2023/08/16 00:38:34;;;;;;;4.73;4.33;;;26.50;92.30;;;;;;4966159;28;20513;-68
2023/08/16 00:41:00;;;;;;;4.23;3.93;;;26.50;92.30;;;;;;4977402;28;20529;-68
2023/08/16 00:43:26;;;;;;;4.50;4.20;;;26.50;92.30;;;;;;4952141;28;20458;-68
2023/08/16 00:45:52;;;;;;;4.63;3.97;;;26.50;92.30;;;;;;4944146;28;21027;-68
2023/08/16 00:48:21;;;;;;;4.40;4.10;;;26.40;92.20;;;;;;4927646;29;21015;-68
2023/08/16 00:50:50;;;;;;;5.17;4.73;;;26.40;92.20;;;;;;4960287;28;21254;-68
2023/08/16 00:53:20;;;;;;;4.90;4.57;;;26.40;92.30;;;;;;4946644;28;20450;-68
2023/08/16 00:55:46;;;;;;;4.00;3.77;;;26.40;92.30;;;;;;4963365;28;20414;-68
2023/08/16 00:58:15;;;;;;;4.27;3.97;;;26.40;92.30;;;;;;4946992;28;20490;-68
2023/08/16 01:00:41;;;;;;;4.83;4.30;;;26.40;92.30;;;;;;4979066;28;20422;-68
2023/08/16 01:03:07;;;;;;;7.13;5.00;;;26.40;92.30;;;;;;4946159;28;20464;-68
2023/08/16 01:05:33;;;;;;;4.60;4.13;;;26.40;92.30;;;;;;4962872;28;20454;-68
2023/08/16 01:08:01;;;;;;;4.80;4.40;;;26.40;92.30;;;;;;4979615;28;20414;-68
2023/08/16 01:10:42;;;;;;;5.43;4.90;;;26.40;92.30;;;;;;4948146;28;20423;-68
2023/08/16 01:13:16;;;;;;;5.10;4.53;;;26.40;92.30;;;;;;4944333;28;20454;-68
2023/08/16 01:15:49;;;;;;;5.23;4.83;;;26.30;92.30;;;;;;4927848;29;20556;-68
2023/08/16 01:18:15;;;;;;;6.40;4.90;;;26.30;92.30;;;;;;4943476;29;20403;-68
2023/08/16 01:20:44;;;;;;;5.23;4.73;;;26.30;92.30;;;;;;4944254;28;20426;-68
2023/08/16 01:23:23;;;;;;;4.90;4.50;;;26.30;92.30;;;;;;4929312;28;20833;-68
2023/08/16 01:25:53;;;;;;;4.90;4.50;;;26.30;92.30;;;;;;4970595;28;20446;-68
2023/08/16 01:28:21;;;;;;;5.40;4.90;;;26.30;92.30;;;;;;4927768;29;20427;-68
2023/08/16 01:30:48;;;;;;;5.47;5.00;;;26.30;92.30;;;;;;4912295;29;20450;-68
2023/08/16 01:33:18;;;;;;;5.37;4.87;;;26.20;92.30;;;;;;4927538;29;21340;-68
2023/08/16 01:35:52;;;;;;;5.40;5.00;;;26.20;92.30;;;;;;4946020;28;20447;-68
2023/08/16 01:38:18;;;;;;;5.17;4.77;;;26.20;92.30;;;;;;4978139;28;20863;-68
2023/08/16 01:40:54;;;;;;;5.47;5.07;;;26.20;92.30;;;;;;4959850;28;20426;-68
2023/08/16 01:43:21;;;;;;;6.20;5.37;;;26.20;92.30;;;;;;4942937;29;20442;-68
2023/08/16 01:45:52;;;;;;;6.13;4.97;;;26.20;92.30;;;;;;4943017;28;20423;-68
2023/08/16 01:48:21;;;;;;;5.60;5.10;;;26.20;92.30;;;;;;4943191;29;20996;-68
2023/08/16 01:50:47;;;;;;;5.53;5.03;;;26.10;92.30;;;;;;4926931;29;20506;-68
2023/08/16 01:53:19;;;;;;;5.33;4.77;;;26.10;92.30;;;;;;4942571;29;20440;-68
2023/08/16 01:55:45;;;;;;;5.10;4.60;;;26.10;92.30;;;;;;4942926;28;20940;-68
2023/08/16 01:58:16;;;;;;;5.20;4.80;;;26.10;92.30;;;;;;4943220;29;20414;-68
2023/08/16 02:00:44;;;;;;;6.00;4.43;;;26.10;92.30;;;;;;4959224;28;20419;-68
2023/08/16 02:03:10;;;;;;;6.00;4.80;;;26.10;92.40;;;;;;4926839;29;20447;-68
2023/08/16 02:05:36;;;;;;;5.67;5.17;;;26.10;92.40;;;;;;4948503;28;21130;-68
2023/08/16 02:08:03;;;;;;;5.63;5.13;;;26.10;92.40;;;;;;4978482;28;20285;-68
2023/08/16 02:10:28;;;;;;;5.47;4.97;;;26.10;92.40;;;;;;4976836;28;20426;-68
2023/08/16 02:12:55;;;;;;;7.50;5.30;;;26.10;92.40;;;;;;4963392;28;20496;-68
2023/08/16 02:15:21;;;;;;;5.10;4.70;;;26.00;92.30;;;;;;4946033;28;20522;-68
2023/08/16 02:17:49;;;;;;;6.50;4.83;;;26.00;92.30;;;;;;4962439;28;20529;-68
2023/08/16 02:20:16;;;;;;;5.93;5.30;;;26.00;92.30;;;;;;4946012;28;20474;-68
2023/08/16 02:22:46;;;;;;;5.93;5.43;;;26.00;92.70;;;;;;4916216;29;20905;-68
2023/08/16 02:25:12;;;;;;;6.60;4.57;;;26.00;92.40;;;;;;4942668;28;20462;-68
2023/08/16 02:27:41;;;;;;;5.37;4.83;;;26.00;92.30;;;;;;4944266;28;20438;-68
2023/08/16 02:30:08;;;;;;;5.87;4.70;;;26.00;92.30;;;;;;4942976;29;20509;-68
2023/08/16 02:32:38;;;;;;;5.37;4.87;;;25.90;92.30;;;;;;4944562;28;20222;-68
2023/08/16 02:35:09;;;;;;;4.63;4.33;;;25.90;92.30;;;;;;4931004;28;20457;-68
2023/08/16 02:37:38;;;;;;;5.40;4.90;;;25.90;92.30;;;;;;4963809;28;20492;-68
2023/08/16 02:40:05;;;;;;;4.93;4.50;;;25.90;92.40;;;;;;4981878;28;20446;-68
2023/08/16 02:42:31;;;;;;;5.73;5.10;;;25.90;92.30;;;;;;4965770;28;20532;-68
2023/08/16 02:44:59;;;;;;;5.77;5.37;;;25.90;92.30;;;;;;4981599;28;20509;-68
2023/08/16 02:47:25;;;;;;;5.20;4.70;;;25.90;92.40;;;;;;4965211;28;20556;-68
2023/08/16 02:49:51;;;;;;;4.67;4.30;;;25.90;92.40;;;;;;4963303;28;20877;-68
2023/08/16 02:52:17;;;;;;;5.20;4.80;;;25.90;92.40;;;;;;4970983;28;20451;-68
2023/08/16 02:54:43;;;;;;;4.97;4.57;;;25.90;92.40;;;;;;4930161;29;20481;-68
2023/08/16 02:57:09;;;;;;;4.67;4.37;;;25.80;92.30;;;;;;4946637;28;20438;-68
2023/08/16 02:59:40;;;;;;;5.20;4.70;;;25.80;92.30;;;;;;4930204;29;20459;-68
2023/08/16 03:02:07;;;;;;;4.93;4.43;;;25.80;92.40;;;;;;4946521;28;20541;-68
2023/08/16 03:04:38;;;;;;;5.00;4.50;;;25.80;92.40;;;;;;4947255;28;20422;-68
2023/08/16 03:07:08;;;;;;;4.90;4.50;;;25.80;92.40;;;;;;4942176;28;20438;-68
2023/08/16 03:09:35;;;;;;;5.33;4.83;;;25.80;92.40;;;;;;4964905;28;20432;-68
2023/08/16 03:12:02;;;;;;;7.30;5.13;;;25.80;92.40;;;;;;4964761;28;20524;-68
2023/08/16 03:14:31;;;;;;;5.37;4.90;;;25.70;92.40;;;;;;4965195;28;20983;-68
2023/08/16 03:16:58;;;;;;;5.27;4.77;;;25.70;92.40;;;;;;4947186;28;20430;-68
2023/08/16 03:19:28;;;;;;;5.67;4.80;;;25.70;92.40;;;;;;4945997;28;20477;-68
2023/08/16 03:21:58;;;;;;;6.30;4.60;;;25.70;92.30;;;;;;4946893;28;20509;-68
2023/08/16 03:24:28;;;;;;;5.20;4.80;;;25.70;92.30;;;;;;4913585;29;20509;-68
2023/08/16 03:26:55;;;;;;;5.17;4.67;;;25.70;92.40;;;;;;4929548;28;20421;-68
2023/08/16 03:29:24;;;;;;;5.47;5.07;;;25.70;92.40;;;;;;4946873;29;20429;-68
2023/08/16 03:31:55;;;;;;;5.20;4.80;;;25.70;92.40;;;;;;4945601;28;20455;-68
2023/08/16 03:34:22;;;;;;;5.27;4.77;;;25.60;92.30;;;;;;4945444;29;20873;-68
2023/08/16 03:36:51;;;;;;;5.33;4.67;;;25.60;92.40;;;;;;4955692;28;20572;-68
2023/08/16 03:39:18;;;;;;;4.80;4.30;;;25.60;92.40;;;;;;4961508;28;20457;-68
2023/08/16 03:41:48;;;;;;;4.90;4.50;;;25.60;92.70;;;;;;4950462;28;20820;-68
2023/08/16 03:44:16;;;;;;;5.40;5.00;;;25.60;92.40;;;;;;4964373;28;21553;-68
2023/08/16 03:46:43;;;;;;;4.73;4.23;;;25.60;92.40;;;;;;4980978;28;20422;-68
2023/08/16 03:49:09;;;;;;;5.73;4.77;;;25.60;92.40;;;;;;4980422;28;20878;-68
2023/08/16 03:51:37;;;;;;;5.10;4.60;;;25.60;92.40;;;;;;4960744;28;20995;-72
2023/08/16 03:54:03;;;;;;;4.87;4.47;;;25.60;92.50;;;;;;4944376;29;21068;-68
2023/08/16 03:56:31;;;;;;;5.13;4.40;;;25.50;92.40;;;;;;4944591;29;20498;-68
2023/08/16 03:58:57;;;;;;;4.77;4.40;;;25.60;92.50;;;;;;4944987;28;20520;-68
2023/08/16 04:01:30;;;;;;;5.70;4.77;;;25.50;92.40;;;;;;4944751;28;20486;-68
2023/08/16 04:03:56;;;;;;;4.43;4.03;;;25.50;92.40;;;;;;4944300;29;20552;-68
2023/08/16 04:06:25;;;;;;;4.33;3.93;;;25.50;92.40;;;;;;4928558;29;20450;-68
2023/08/16 04:08:53;;;;;;;5.40;4.57;;;25.50;92.50;;;;;;4928907;29;21062;-68
2023/08/16 04:11:19;;;;;;;4.50;4.20;;;25.50;92.50;;;;;;4944165;28;20498;-68
2023/08/16 04:13:52;;;;;;;5.40;5.00;;;25.50;92.50;;;;;;4944792;29;20218;-68
2023/08/16 04:16:19;;;;;;;4.70;4.30;;;25.40;92.50;;;;;;4963696;28;20457;-68
2023/08/16 04:18:50;;;;;;;5.07;4.77;;;25.40;92.50;;;;;;4963642;28;20496;-68
2023/08/16 04:21:16;;;;;;;4.37;4.03;;;25.40;92.50;;;;;;4964865;28;20409;-68
2023/08/16 04:23:42;;;;;;;4.60;4.30;;;25.40;92.50;;;;;;4928661;29;20427;-68
2023/08/16 04:26:11;;;;;;;5.20;4.70;;;25.40;92.50;;;;;;4944473;28;20250;-68
2023/08/16 04:28:37;;;;;;;4.57;4.27;;;25.40;92.50;;;;;;4912801;29;20901;-68
2023/08/16 04:31:06;;;;;;;5.47;4.73;;;25.40;92.50;;;;;;4943907;29;20446;-68
2023/08/16 04:33:34;;;;;;;4.53;4.23;;;25.40;92.60;;;;;;4928006;29;20493;-68
2023/08/16 04:36:00;;;;;;;4.30;4.00;;;25.40;92.60;;;;;;4959300;28;20527;-68
2023/08/16 04:38:28;;;;;;;7.03;4.20;;;25.40;92.60;;;;;;4947860;28;20935;-68
2023/08/16 04:40:54;;;;;;;4.83;4.50;;;25.40;92.60;;;;;;4963946;28;20415;-68
2023/08/16 04:43:20;;;;;;;5.27;4.97;;;25.40;92.60;;;;;;4930390;28;20905;-70
2023/08/16 04:45:49;;;;;;;4.37;4.07;;;25.30;92.50;;;;;;4944936;28;20438;-70
2023/08/16 04:48:15;;;;;;;4.47;4.17;;;25.30;92.50;;;;;;4962155;28;20426;-69
2023/08/16 04:50:42;;;;;;;5.47;4.40;;;25.30;92.50;;;;;;4962200;28;20401;-69
2023/08/16 04:53:09;;;;;;;5.10;4.73;;;25.30;92.60;;;;;;4946060;28;20442;-69
2023/08/16 04:55:40;;;;;;;5.70;4.80;;;25.30;92.60;;;;;;4943748;28;20418;-69
2023/08/16 04:58:09;;;;;;;5.80;4.23;;;25.30;92.60;;;;;;4942504;29;20808;-69
2023/08/16 05:00:42;;;;;;;5.30;4.67;;;25.30;92.60;;;;;;4926879;29;20458;-69
2023/08/16 05:03:08;;;;;;;6.00;3.97;;;25.30;92.60;;;;;;4942634;29;20829;-68
2023/08/16 05:05:37;;;;;;;4.87;4.40;;;25.20;92.50;;;;;;4944459;28;20557;-69
2023/08/16 05:08:03;;;;;;;4.33;3.93;;;25.20;92.50;;;;;;4927800;29;20958;-69
2023/08/16 05:10:32;;;;;;;4.70;4.30;;;25.20;92.50;;;;;;4927656;29;20391;-69
2023/08/16 05:13:00;;;;;;;4.50;4.17;;;25.20;92.50;;;;;;4942542;29;21019;-69
2023/08/16 05:15:29;;;;;;;4.00;3.70;;;25.20;92.50;;;;;;4941675;28;20432;-69
2023/08/16 05:17:55;;;;;;;4.73;4.40;;;25.20;92.50;;;;;;4963169;28;20453;-69
2023/08/16 05:20:24;;;;;;;4.20;3.80;;;25.20;92.50;;;;;;4961777;28;20457;-68
2023/08/16 05:22:51;;;;;;;6.33;3.80;;;25.20;92.50;;;;;;4963375;28;20963;-69
2023/08/16 05:25:18;;;;;;;6.50;4.37;;;25.20;92.50;;;;;;5064056;22;20557;-69
2023/08/16 05:27:50;;;;;;;4.53;4.13;;;25.20;92.50;;;;;;4980955;28;20430;-69
2023/08/16 05:30:16;;;;;;;5.10;4.67;;;25.20;92.60;;;;;;4986159;28;20621;-70
2023/08/16 05:32:47;;;;;;;4.80;4.40;;;25.10;92.50;;;;;;4985753;28;20435;-70
2023/08/16 05:35:13;;;;;;;4.60;4.20;;;25.10;92.50;;;;;;4969370;28;20829;-69
2023/08/16 05:37:41;;;;;;;5.23;4.23;;;25.10;92.50;;;;;;4969111;28;20416;-69
2023/08/16 05:40:09;;;;;;;4.67;4.07;;;25.10;92.50;;;;;;5003088;28;20479;-70
2023/08/16 05:42:35;;;;;;;5.97;5.27;;;25.10;92.50;;;;;;4985155;28;20653;-69
2023/08/16 05:45:03;;;;;;;5.37;4.93;;;25.10;92.50;;;;;;4994110;28;20486;-73
2023/08/16 05:47:30;;;;;;;5.73;4.70;;;25.10;92.50;;;;;;4984313;28;20479;-74
2023/08/16 05:50:01;;;;;;;5.03;4.63;;;25.10;92.50;;;;;;4989539;28;20421;-73
2023/08/16 05:52:27;;;;;;;5.40;5.00;;;25.10;92.50;;;;;;4968422;28;20876;-73
2023/08/16 05:54:55;;;;;;;5.30;4.30;;;25.10;92.50;;;;;;4964157;28;20792;-73
2023/08/16 05:57:21;;;;;;;5.00;4.60;;;25.10;92.50;;;;;;4949521;28;20436;-73
2023/08/16 05:59:49;;;;;;;4.90;4.50;;;25.10;92.50;;;;;;4983118;28;20452;-73
2023/08/16 06:02:16;;;;;;;5.30;4.70;;;25.10;92.60;;;;;;4969546;28;20512;-73
2023/08/16 06:04:43;;;;;;;5.70;4.83;;;25.00;92.50;;;;;;5002636;28;20283;-73
2023/08/16 06:07:08;;;;;;;6.00;5.13;;;25.00;92.50;;;;;;4970308;28;20446;-73
2023/08/16 06:09:35;;;;;;;6.53;4.93;;;25.00;92.90;;;;;;4956710;28;20499;-73
2023/08/16 06:12:01;;;;;;;5.67;5.00;;;25.00;92.60;;;;;;4988639;28;20205;-73
2023/08/16 06:14:27;;;;;;;6.27;4.73;;;25.00;92.60;;;;;;4984038;28;20929;-73
2023/08/16 06:16:55;;;;;;;5.43;4.93;;;25.00;92.60;;;;;;4952801;28;20447;-73
2023/08/16 06:19:29;;;;;;;5.07;4.60;;;25.00;92.60;;;;;;4968865;28;20507;-73
2023/08/16 06:21:55;;;;;;;7.10;5.20;;;25.00;92.60;;;;;;4968605;28;20464;-72
2023/08/16 06:24:23;;;;;;;5.77;5.27;;;25.00;92.60;;;;;;4953082;28;20799;-73
2023/08/16 06:26:49;;;;;;;5.00;4.60;;;24.90;92.60;;;;;;4968968;28;20429;-73
2023/08/16 06:29:18;;;;;;;5.97;5.37;;;24.90;92.60;;;;;;4986659;28;20945;-73
2023/08/16 06:31:48;;;;;;;5.93;5.43;;;24.90;93.00;;;;;;4937174;28;20469;-73
2023/08/16 06:34:14;;;;;;;6.00;5.50;;;25.00;92.70;;;;;;4984294;28;20428;-73
2023/08/16 06:36:40;;;;;;;6.20;5.60;;;24.90;92.70;;;;;;4968808;28;20551;-73
2023/08/16 06:39:08;;;;;;;5.80;5.23;;;25.00;92.70;;;;;;4969161;28;20198;-73
2023/08/16 06:41:34;;;;;;;5.70;5.20;;;24.90;92.70;;;;;;4953323;28;20436;-71
2023/08/16 06:44:00;;;;;;;6.57;5.50;;;24.90;92.70;;;;;;4987304;28;20459;-71
2023/08/16 06:46:26;;;;;;;6.83;5.37;;;24.90;92.70;;;;;;4969310;28;20446;-71
2023/08/16 06:48:55;;;;;;;5.57;4.20;;;25.00;92.80;;;;;;4968873;28;20527;-71
2023/08/16 06:51:21;;;;;;;6.37;5.33;;;24.90;92.70;;;;;;4953134;28;20914;-71
2023/08/16 06:53:50;;;;;;;5.73;4.80;;;24.90;92.70;;;;;;4953415;28;20441;-71
2023/08/16 06:56:19;;;;;;;6.20;4.93;;;24.90;92.70;;;;;;4987398;28;20402;-71
2023/08/16 06:58:45;;;;;;;6.40;4.90;;;24.90;92.70;;;;;;4969064;28;20510;-71
2023/08/16 07:01:12;;;;;;;5.83;4.80;;;24.90;92.80;;;;;;4969151;28;20985;-71
2023/08/16 07:03:38;;;;;;;5.30;4.80;;;24.90;92.80;;;;;;4969290;28;20202;-71
2023/08/16 07:06:04;;;;;;;4.60;4.27;;;24.90;92.80;;;;;;4969532;28;20495;-71
2023/08/16 07:08:30;;;;;;;4.70;4.30;;;24.90;92.80;;;;;;4986868;28;20405;-71
2023/08/16 07:10:56;;;;;;;4.80;4.40;;;24.90;92.80;;;;;;4968608;28;20445;-71
2023/08/16 07:13:22;;;;;;;4.53;4.23;;;24.90;92.80;;;;;;4952536;28;20469;-71
2023/08/16 07:15:49;;;;;;;4.80;4.40;;;24.90;92.80;;;;;;4986115;28;20417;-71
2023/08/16 07:18:17;;;;;;;4.80;4.37;;;24.90;92.80;;;;;;4985203;28;20412;-71
2023/08/16 07:20:46;;;;;;;4.83;4.53;;;24.90;92.70;;;;;;4952441;28;20425;-71
2023/08/16 07:23:14;;;;;;;5.47;4.67;;;24.90;92.80;;;;;;4951964;28;20850;-71
2023/08/16 07:25:41;;;;;;;5.57;5.07;;;24.90;92.90;;;;;;4968308;28;21193;-71
2023/08/16 07:28:07;;;;;;;6.40;4.90;;;24.90;92.90;;;;;;4986349;28;20417;-71
2023/08/16 07:30:36;;;;;;;5.33;4.40;;;24.90;92.90;;;;;;4952259;28;20459;-71
2023/08/16 07:33:06;;;;;;;7.10;6.00;;;24.90;92.90;;;;;;4986756;28;20970;-71
2023/08/16 07:35:32;;;;;;;5.63;5.13;;;24.90;92.90;;;;;;4986476;28;20410;-71
2023/08/16 07:38:04;;;;;;;5.50;4.90;;;24.90;93.00;;;;;;4968517;28;20496;-71
2023/08/16 07:40:31;;;;;;;5.20;4.70;;;24.90;92.90;;;;;;4986457;28;20532;-71
2023/08/16 07:43:00;;;;;;;5.47;5.07;;;24.90;92.90;;;;;;4968256;28;20554;-71
2023/08/16 07:45:30;;;;;;;5.10;4.67;;;24.90;92.90;;;;;;4952864;28;20430;-71
2023/08/16 07:47:57;;;;;;;4.83;4.40;;;24.90;92.90;;;;;;4986078;28;20414;-71
2023/08/16 07:50:23;;;;;;;5.07;4.60;;;24.90;93.00;;;;;;4968310;28;20479;-71
2023/08/16 07:52:52;;;;;;;5.50;5.00;;;25.00;93.40;;;;;;4985434;28;20486;-71
2023/08/16 07:55:18;;;;;;;7.47;6.17;;;24.90;93.10;;;;;;4952070;28;20436;-71
2023/08/16 07:57:44;;;;;;;6.87;5.20;;;24.90;93.20;;;;;;4985666;28;20402;-71
2023/08/16 08:00:14;;;;;;;5.93;5.40;;;24.90;93.10;;;;;;4969049;28;20543;-71
2023/08/16 08:02:40;;;;;;;5.57;5.00;;;24.90;93.20;;;;;;4966882;28;20453;-71
2023/08/16 08:05:07;;;;;;;6.00;5.40;;;24.90;93.30;;;;;;4952593;28;20523;-71
2023/08/16 08:07:33;;;;;;;5.37;4.87;;;24.90;93.20;;;;;;4968496;28;20433;-71
2023/08/16 08:10:00;;;;;;;5.03;4.63;;;25.00;93.30;;;;;;4968447;28;20451;-71
2023/08/16 08:12:26;;;;;;;5.67;5.07;;;25.00;93.30;;;;;;4968708;28;20463;-71
2023/08/16 08:14:57;;;;;;;5.63;5.10;;;24.90;93.40;;;;;;4952041;28;20448;-71
2023/08/16 08:17:23;;;;;;;5.83;5.37;;;25.00;93.40;;;;;;4951989;28;20208;-71
2023/08/16 08:19:52;;;;;;;5.70;5.23;;;24.90;93.40;;;;;;4968374;28;20445;-71
2023/08/16 08:22:21;;;;;;;6.63;4.97;;;25.00;93.50;;;;;;4985294;28;20515;-71
2023/08/16 08:24:51;;;;;;;6.83;5.80;;;24.90;93.50;;;;;;4966949;28;20432;-71
2023/08/16 08:27:17;;;;;;;6.33;5.77;;;25.00;93.50;;;;;;4967525;28;20409;-71
2023/08/16 08:29:43;;;;;;;6.40;5.90;;;24.90;93.40;;;;;;4985216;28;21165;-71
2023/08/16 08:32:09;;;;;;;6.77;6.20;;;25.00;93.50;;;;;;4966905;28;20435;-71
2023/08/16 08:34:39;;;;;;;6.10;5.60;;;24.90;93.40;;;;;;4966891;28;20410;-71
2023/08/16 08:37:05;;;;;;;7.07;6.43;;;24.90;93.50;;;;;;4967241;28;20427;-72
2023/08/16 08:39:33;;;;;;;6.70;6.00;;;24.90;93.50;;;;;;4967408;28;20472;-71
2023/08/16 08:41:59;;;;;;;6.57;6.07;;;24.90;93.50;;;;;;4967495;28;20538;-72
2023/08/16 08:44:25;;;;;;;6.87;6.33;;;24.90;93.50;;;;;;4998105;23;20642;-77
2023/08/16 08:46:52;;;;;;;7.10;6.50;;;24.90;93.60;;;;;;4982640;28;20440;-76
2023/08/16 08:49:23;;;;;;;6.77;6.13;;;24.90;93.60;;;;;;4964518;28;20435;-77
2023/08/16 08:51:50;;;;;;;7.10;5.90;;;24.90;93.60;;;;;;4980661;28;20573;-77
2023/08/16 08:54:16;;;;;;;7.40;6.80;;;25.00;93.70;;;;;;4979526;28;20436;-77
2023/08/16 08:56:48;;;;;;;9.50;7.03;;;24.90;93.60;;;;;;4962468;28;20429;-77
2023/08/16 08:59:14;;;;;;;7.70;6.90;;;24.90;93.70;;;;;;4998155;28;20506;-76
2023/08/16 09:01:42;;;;;;;8.20;7.50;;;24.90;93.70;;;;;;4981530;28;20534;-77
2023/08/16 09:04:10;;;;;;;7.83;7.13;;;24.90;93.70;;;;;;4980934;28;20498;-77
2023/08/16 09:06:41;;;;;;;8.03;7.30;;;24.90;93.70;;;;;;4969308;28;20545;-77
2023/08/16 09:09:08;;;;;;;7.90;7.20;;;24.90;93.70;;;;;;4956793;28;21110;-77
2023/08/16 09:11:37;;;;;;;8.30;6.70;;;24.90;93.70;;;;;;4982232;28;20492;-77
2023/08/16 09:14:06;;;;;;;8.13;7.43;;;24.90;93.90;;;;;;4979833;28;20592;-77
2023/08/16 09:16:31;;;;;;;9.03;8.17;;;24.90;93.80;;;;;;4964185;28;20801;-76
2023/08/16 09:18:57;;;;;;;8.67;7.77;;;24.90;93.70;;;;;;4964444;28;20472;-75
2023/08/16 09:21:28;;;;;;;7.90;7.20;;;24.90;93.70;;;;;;4980845;28;20945;-76
2023/08/16 09:24:00;;;;;;;8.10;7.40;;;24.90;93.80;;;;;;4982304;28;21306;-76
2023/08/16 09:26:29;;;;;;;7.93;7.23;;;24.90;94.00;;;;;;4980764;28;20467;-76
2023/08/16 09:29:00;;;;;;;8.20;7.50;;;24.90;94.00;;;;;;4982797;28;20651;-76
2023/08/16 09:31:30;;;;;;;7.90;7.20;;;24.90;94.00;;;;;;4981155;28;20503;-76
2023/08/16 09:34:00;;;;;;;9.07;8.37;;;25.00;94.20;;;;;;4982461;28;20997;-75
2023/08/16 09:36:30;;;;;;;9.13;8.43;;;25.00;94.20;;;;;;4948994;28;20443;-77
2023/08/16 09:39:03;;;;;;;9.23;8.33;;;25.00;94.30;;;;;;4964563;28;20479;-77
2023/08/16 09:41:35;;;;;;;8.10;7.50;;;25.00;94.20;;;;;;4932361;28;20859;-77
2023/08/16 09:44:04;;;;;;;8.57;7.67;;;25.00;94.20;;;;;;4965685;28;20848;-76
2023/08/16 09:46:34;;;;;;;8.07;7.37;;;25.10;94.30;;;;;;5001894;28;20898;-77
2023/08/16 09:49:12;;;;;;;8.30;7.50;;;25.10;94.30;;;;;;5001874;28;20434;-77
2023/08/16 09:51:40;;;;;;;9.67;8.77;;;25.10;94.20;;;;;;4967779;28;20476;-75
2023/08/16 09:54:13;;;;;;;8.60;7.90;;;25.10;94.10;;;;;;5000145;28;20491;-75
2023/08/16 09:56:43;;;;;;;9.77;8.87;;;25.10;94.10;;;;;;4983875;28;21143;-76
2023/08/16 09:59:11;;;;;;;9.30;8.40;;;25.10;94.10;;;;;;5000504;28;20460;-75
2023/08/16 10:01:38;;;;;;;10.57;9.33;;;25.10;94.30;;;;;;5001986;28;20444;-77
2023/08/16 10:04:06;;;;;;;8.23;7.43;;;25.20;94.30;;;;;;5000042;28;20423;-77
2023/08/16 10:06:33;;;;;;;8.10;7.40;;;25.20;94.20;;;;;;4967600;28;20443;-76
2023/08/16 10:09:04;;;;;;;11.80;8.60;;;25.20;94.20;;;;;;4983895;28;20424;-76
2023/08/16 10:11:33;;;;;;;9.60;8.30;;;25.20;94.10;;;;;;5001950;28;20473;-75
2023/08/16 10:14:02;;;;;;;9.47;8.40;;;25.20;94.10;;;;;;5001792;28;20452;-77
2023/08/16 10:16:30;;;;;;;8.60;7.70;;;25.20;94.10;;;;;;4993295;28;20464;-76
2023/08/16 10:19:00;;;;;;;9.40;8.60;;;25.20;94.10;;;;;;4963799;28;20454;-77
2023/08/16 10:21:32;;;;;;;8.47;7.67;;;25.20;94.10;;;;;;4980278;28;20414;-76
2023/08/16 10:24:00;;;;;;;8.53;7.83;;;25.20;94.00;;;;;;4979059;28;20946;-76
2023/08/16 10:26:31;;;;;;;8.33;7.63;;;25.20;94.00;;;;;;4980817;28;20448;-76
2023/08/16 10:29:03;;;;;;;7.40;6.70;;;25.30;94.10;;;;;;4962877;28;20974;-77
2023/08/16 10:31:40;;;;;;;7.27;6.77;;;25.30;94.00;;;;;;4981025;28;20459;-76
2023/08/16 10:34:09;;;;;;;8.20;7.50;;;25.30;94.00;;;;;;4982099;28;20487;-77
2023/08/16 10:36:38;;;;;;;8.10;7.40;;;25.30;94.00;;;;;;4979130;28;20471;-77
2023/08/16 10:39:04;;;;;;;7.97;7.27;;;25.30;94.10;;;;;;4962521;28;20477;-76
2023/08/16 10:41:42;;;;;;;7.57;6.87;;;25.30;94.10;;;;;;4982128;28;21033;-77
2023/08/16 10:44:11;;;;;;;7.50;6.80;;;25.30;94.10;;;;;;4965822;28;20972;-76
2023/08/16 10:46:40;;;;;;;8.23;7.53;;;25.30;94.00;;;;;;4982255;28;20831;-77
2023/08/16 10:49:06;;;;;;;8.33;7.70;;;25.30;94.10;;;;;;4982273;28;20431;-77
2023/08/16 10:52:03;;;;;;;9.67;8.67;;;25.30;94.00;;;;;;4981553;28;20574;-75
2023/08/16 10:54:34;;;;;;;7.60;6.90;;;25.40;94.30;;;;;;4947837;28;20482;-76
2023/08/16 10:57:04;;;;;;;7.47;6.87;;;25.30;94.20;;;;;;4970669;28;20436;-76
2023/08/16 10:59:42;;;;;;;8.27;7.47;;;25.40;94.20;;;;;;4986140;28;20459;-77
2023/08/16 11:02:15;;;;;;;8.17;7.37;;;25.30;94.20;;;;;;4969490;28;20550;-77
2023/08/16 11:04:42;;;;;;;9.03;8.23;;;25.40;94.20;;;;;;5000955;28;20410;-77
2023/08/16 11:07:09;;;;;;;8.50;7.70;;;25.40;94.30;;;;;;4984965;28;20996;-76
2023/08/16 11:09:38;;;;;;;9.10;8.33;;;25.40;94.30;;;;;;4985246;28;20415;-76
2023/08/16 11:12:07;;;;;;;9.90;8.90;;;25.40;94.30;;;;;;5002937;28;20452;-77
2023/08/16 11:14:34;;;;;;;9.70;8.50;;;25.40;94.30;;;;;;5001366;28;20490;-76
2023/08/16 11:17:02;;;;;;;9.87;8.87;;;25.40;94.20;;;;;;5002439;28;20429;-76
2023/08/16 11:19:28;;;;;;;9.70;8.73;;;25.40;94.30;;;;;;4985951;28;20472;-76
2023/08/16 11:22:01;;;;;;;11.90;9.33;;;25.40;94.30;;;;;;4985632;28;20505;-77
2023/08/16 11:24:28;;;;;;;8.90;8.07;;;25.40;94.30;;;;;;5001820;28;20855;-77
2023/08/16 11:26:58;;;;;;;9.77;8.87;;;25.40;94.30;;;;;;4959719;28;20452;-76
2023/08/16 11:29:26;;;;;;;10.33;9.40;;;25.40;94.30;;;;;;4979354;28;20430;-76
2023/08/16 11:31:57;;;;;;;9.83;8.90;;;25.40;94.30;;;;;;4979755;28;20443;-77
2023/08/16 11:34:23;;;;;;;10.33;8.57;;;25.40;94.20;;;;;;4950120;28;20441;-77
2023/08/16 11:36:50;;;;;;;9.97;9.07;;;25.40;94.20;;;;;;4983395;28;20587;-77
2023/08/16 11:39:16;;;;;;;9.60;8.77;;;25.40;94.20;;;;;;4965446;28;21181;-77
2023/08/16 11:41:45;;;;;;;10.00;9.10;;;25.40;94.20;;;;;;4998599;28;20440;-77
2023/08/16 11:44:13;;;;;;;9.53;8.63;;;25.40;94.20;;;;;;4992628;28;20457;-78
2023/08/16 11:46:41;;;;;;;9.57;8.70;;;25.40;94.30;;;;;;4964971;28;21177;-77
2023/08/16 11:49:08;;;;;;;9.33;8.50;;;25.40;94.20;;;;;;4982440;28;20455;-77
2023/08/16 11:51:38;;;;;;;9.77;8.87;;;25.40;94.30;;;;;;4963097;28;20451;-76
2023/08/16 11:54:20;;;;;;;13.77;9.33;;;25.40;94.30;;;;;;4982056;28;21032;-77
2023/08/16 11:56:48;;;;;;;9.77;8.97;;;25.40;94.30;;;;;;4981914;28;21350;-77
2023/08/16 11:59:28;;;;;;;9.00;8.30;;;25.40;94.30;;;;;;4995607;28;20528;-77
2023/08/16 12:01:55;;;;;;;8.60;7.90;;;25.40;94.30;;;;;;4982159;28;20475;-77
2023/08/16 12:04:24;;;;;;;9.73;8.67;;;25.40;94.20;;;;;;4982888;28;20431;-76
2023/08/16 12:06:49;;;;;;;10.03;9.13;;;25.40;94.30;;;;;;5001650;28;20424;-76
2023/08/16 12:09:19;;;;;;;9.67;8.67;;;25.40;94.40;;;;;;5002147;28;20443;-77
2023/08/16 12:11:51;;;;;;;9.67;8.80;;;25.40;94.30;;;;;;4984381;28;20240;-77
2023/08/16 12:14:18;;;;;;;9.53;8.63;;;25.40;94.30;;;;;;4982403;28;20437;-76
2023/08/16 12:16:44;;;;;;;9.20;8.30;;;25.40;94.30;;;;;;4966598;28;20446;-77
2023/08/16 12:19:20;;;;;;;9.67;8.80;;;25.40;94.30;;;;;;4983240;28;20463;-77
2023/08/16 12:21:50;;;;;;;9.30;8.50;;;25.40;94.40;;;;;;4983995;28;20547;-76
2023/08/16 12:24:16;;;;;;;9.10;8.23;;;25.40;94.50;;;;;;5001272;28;20512;-76
2023/08/16 12:26:44;;;;;;;9.43;8.60;;;25.40;94.60;;;;;;5002697;28;21319;-77
2023/08/16 12:29:13;;;;;;;9.77;8.77;;;25.40;94.40;;;;;;4985665;28;20507;-77
2023/08/16 12:31:39;;;;;;;9.10;8.23;;;25.40;94.40;;;;;;4985915;28;20460;-77
2023/08/16 12:34:10;;;;;;;9.67;8.80;;;25.40;94.50;;;;;;4985180;28;20552;-77
2023/08/16 12:36:36;;;;;;;10.53;9.53;;;25.50;94.60;;;;;;5002284;28;20526;-76
2023/08/16 12:39:05;;;;;;;10.20;9.30;;;25.50;94.50;;;;;;5011196;28;20466;-77
2023/08/16 12:41:31;;;;;;;9.80;9.00;;;25.50;94.50;;;;;;5003725;28;20485;-77
2023/08/16 12:43:57;;;;;;;10.27;9.27;;;25.50;94.60;;;;;;4967708;28;20443;-76
2023/08/16 12:46:26;;;;;;;10.93;9.93;;;25.50;94.50;;;;;;4984202;28;20448;-76
2023/08/16 12:48:54;;;;;;;10.27;9.37;;;25.50;94.50;;;;;;4984574;28;20436;-76
2023/08/16 12:51:22;;;;;;;10.80;9.80;;;25.50;94.60;;;;;;4985333;28;20679;-78